KDFI

Details ICAO KDFI
Name DEFIANCE MEM
Region United States
Timezone America/New_York (UTC-4.0)
Plans Departing 1
Arriving 0
Stats Elevation 707 ft / 215 m (AMSL)
Location 41.337477° -84.428818°
Runways 1
Magnetic Variation 6.335° W
Sunrise 2018-05-22 10:14:21 UTC / 2018-05-22 06:14:21 Local
Sunset 2018-05-23 00:57:19 UTC / 2018-05-22 20:57:19 Local
Advertisement - Login to hide

Runways

ID Width Length Bearing (true) Bearing (mag) Surface Threshold Offset Overrun Length
12 72 ft / 22 m 4,185 ft / 1,275 m 115.19° 121.52° Asphalt 0 ft / 0 m 0 ft / 0 m
30 72 ft / 22 m 4,185 ft / 1,275 m 295.20° 301.53° Asphalt 0 ft / 0 m 0 ft / 0 m

Map

Weather


0- 5 10 15 20 25 30 35+ Temperature / ° C

Clouds and Precipitation
Forecast for 2018-05-22 18:00 UTC. Updated 3 hours ago

Ground ~20,000 ft ~40,000 ft Winds

METAR

KDFI 221953Z AUTO 28009G15KT 250V320 10SM SCT042 SCT065 26/16 A2996 RMK AO2 SLP143 T02560161

TAF

Not found

Frequencies

Recorded 121.42 MHz ASOS
Approach 134.35 MHz TOLEDO APP/DEP
Unicom 122.70 MHz CTAF/UNICOM
Warning: Do not use this data for real-world aviation or navigation. No guarantee of current accuracy is given.